Time;durP1;ratioP1;P1;durP2;ratioP2;P2;SDS_P1;SDS_P2;PMS_P1;PMS_P2;Temp;Humidity;BMP_temperature;BMP_pressure;BME280_temperature;BME280_humidity;BME280_pressure;Samples;Min_cycle;Max_cycle;Signal;HPM_P1;HPM_P2
2023/10/19 00:00:51;;;;;;;16.30;3.13;;;;;;;;;;5010603;28;20101;-35
2023/10/19 00:03:19;;;;;;;17.75;3.33;;;;;;;;;;5013806;28;20038;-34
2023/10/19 00:05:47;;;;;;;12.70;2.70;;;;;;;;;;5010504;28;20037;-35
2023/10/19 00:10:47;;;;;;;15.13;3.15;;;;;;;;;;5014428;28;20042;-39
2023/10/19 00:13:18;;;;;;;8.35;2.47;;;;;;;;;;5013876;28;20377;-36
2023/10/19 00:15:51;;;;;;;10.40;2.75;;;;;;;;;;5024719;28;20044;-41
2023/10/19 00:20:59;;;;;;;13.45;2.63;;;;;;;;;;5016093;28;20048;-39
2023/10/19 00:23:30;;;;;;;16.73;4.10;;;;;;;;;;5015975;28;20057;-40
2023/10/19 00:25:58;;;;;;;12.90;4.03;;;;;;;;;;5031232;28;20099;-38
2023/10/19 00:28:26;;;;;;;10.98;3.38;;;;;;;;;;5021697;28;20064;-38
2023/10/19 00:30:59;;;;;;;12.98;4.00;;;;;;;;;;5028962;28;20077;-37
2023/10/19 00:33:28;;;;;;;13.60;3.65;;;;;;;;;;5028979;28;20041;-38
2023/10/19 00:36:08;;;;;;;17.70;3.63;;;;;;;;;;5012542;28;20117;-43
2023/10/19 00:41:12;;;;;;;15.48;3.67;;;;;;;;;;5021622;28;20028;-41
2023/10/19 00:43:44;;;;;;;19.75;4.22;;;;;;;;;;5022937;28;20083;-43
2023/10/19 00:48:46;;;;;;;19.65;4.40;;;;;;;;;;5027884;28;20053;-42
2023/10/19 00:54:13;;;;;;;20.05;4.45;;;;;;;;;;5025915;28;20034;-44
2023/10/19 00:56:47;;;;;;;15.30;4.20;;;;;;;;;;5023998;28;20037;-41
2023/10/19 00:59:14;;;;;;;19.13;4.18;;;;;;;;;;5018532;28;20048;-41
2023/10/19 01:01:47;;;;;;;14.35;4.00;;;;;;;;;;5012314;28;20022;-41
2023/10/19 01:04:20;;;;;;;23.98;4.20;;;;;;;;;;5012234;28;20381;-41
2023/10/19 01:07:11;;;;;;;21.08;3.95;;;;;;;;;;5014059;28;20572;-42
2023/10/19 01:09:38;;;;;;;15.40;4.10;;;;;;;;;;5007540;28;20045;-41
2023/10/19 01:15:07;;;;;;;16.45;3.83;;;;;;;;;;5015417;28;20052;-41
2023/10/19 01:17:38;;;;;;;12.80;3.95;;;;;;;;;;5005641;28;20026;-41
2023/10/19 01:20:19;;;;;;;19.73;3.38;;;;;;;;;;5015010;28;20060;-44
2023/10/19 01:22:53;;;;;;;15.75;3.97;;;;;;;;;;5014860;28;20057;-41
2023/10/19 01:25:34;;;;;;;18.45;3.45;;;;;;;;;;5014284;28;20025;-41
2023/10/19 01:28:07;;;;;;;14.85;3.60;;;;;;;;;;5015083;28;20041;-42
2023/10/19 01:30:34;;;;;;;11.02;3.22;;;;;;;;;;5013223;28;20049;-41
2023/10/19 01:33:02;;;;;;;10.73;3.20;;;;;;;;;;5013718;28;20026;-42
2023/10/19 01:36:10;;;;;;;10.95;4.00;;;;;;;;;;5010456;28;20070;-43
2023/10/19 01:38:16;;;;;;;10.88;3.05;;;;;;;;;;5018023;28;20056;-42
2023/10/19 01:40:46;;;;;;;14.30;3.08;;;;;;;;;;5014870;28;20033;-41
2023/10/19 01:43:25;;;;;;;10.60;2.78;;;;;;;;;;5021181;28;20048;-41
2023/10/19 01:45:55;;;;;;;14.27;3.60;;;;;;;;;;5021883;28;20734;-41
2023/10/19 01:48:35;;;;;;;10.25;2.72;;;;;;;;;;5025751;28;20400;-40
2023/10/19 01:51:10;;;;;;;17.70;3.28;;;;;;;;;;5020511;28;20053;-41
2023/10/19 01:53:47;;;;;;;12.43;3.17;;;;;;;;;;5024696;28;20068;-41
2023/10/19 01:56:15;;;;;;;10.52;2.90;;;;;;;;;;5021014;28;20468;-42
2023/10/19 01:58:42;;;;;;;13.95;3.10;;;;;;;;;;5023906;28;20037;-41
2023/10/19 02:01:20;;;;;;;12.75;3.25;;;;;;;;;;5025149;28;20028;-40
2023/10/19 02:03:51;;;;;;;12.75;2.75;;;;;;;;;;5020046;28;20038;-41
2023/10/19 02:06:26;;;;;;;13.15;3.00;;;;;;;;;;5019355;28;20037;-40
2023/10/19 02:09:31;;;;;;;20.63;3.42;;;;;;;;;;5012772;28;20045;-44
2023/10/19 02:11:50;;;;;;;13.77;3.05;;;;;;;;;;5014536;28;20062;-39
2023/10/19 02:14:21;;;;;;;15.27;2.58;;;;;;;;;;5029306;28;20025;-41
2023/10/19 02:16:52;;;;;;;10.77;3.13;;;;;;;;;;5029728;28;20037;-41
2023/10/19 02:19:22;;;;;;;18.95;3.45;;;;;;;;;;5030865;28;20044;-40
2023/10/19 02:21:54;;;;;;;14.68;3.17;;;;;;;;;;5024188;28;20025;-41
2023/10/19 02:24:21;;;;;;;15.75;2.63;;;;;;;;;;5030457;28;20022;-41
2023/10/19 02:26:51;;;;;;;32.83;3.33;;;;;;;;;;5028763;28;20025;-42
2023/10/19 02:29:18;;;;;;;18.80;3.33;;;;;;;;;;5029867;28;20030;-42
2023/10/19 02:31:47;;;;;;;11.65;3.00;;;;;;;;;;5025344;28;20041;-42
2023/10/19 02:34:17;;;;;;;14.95;2.70;;;;;;;;;;5011173;28;20053;-41
2023/10/19 02:36:45;;;;;;;6.72;2.45;;;;;;;;;;5014845;28;20095;-41
2023/10/19 02:39:28;;;;;;;11.27;2.58;;;;;;;;;;5031566;28;20128;-41
2023/10/19 02:41:55;;;;;;;14.55;2.70;;;;;;;;;;5026214;28;20101;-41
2023/10/19 02:44:23;;;;;;;11.13;2.58;;;;;;;;;;5023210;28;20082;-42
2023/10/19 02:46:52;;;;;;;13.88;2.75;;;;;;;;;;5011819;28;20044;-42
2023/10/19 02:49:20;;;;;;;11.38;2.92;;;;;;;;;;5011305;28;20097;-42
2023/10/19 02:51:48;;;;;;;13.70;3.25;;;;;;;;;;5011970;28;20042;-43
2023/10/19 02:54:20;;;;;;;8.27;2.15;;;;;;;;;;5015243;28;20017;-41
2023/10/19 02:56:49;;;;;;;11.13;2.80;;;;;;;;;;5030950;28;20041;-42
2023/10/19 02:59:21;;;;;;;8.60;2.40;;;;;;;;;;5030142;28;20037;-45
2023/10/19 03:01:50;;;;;;;12.95;2.38;;;;;;;;;;5030542;28;20041;-43
2023/10/19 03:04:17;;;;;;;8.55;2.22;;;;;;;;;;5029482;28;20072;-42
2023/10/19 03:06:44;;;;;;;7.20;2.30;;;;;;;;;;5022020;28;21062;-43
2023/10/19 03:09:29;;;;;;;8.18;2.35;;;;;;;;;;5019037;28;20029;-43
2023/10/19 03:12:03;;;;;;;8.00;2.15;;;;;;;;;;5027082;28;20044;-42
2023/10/19 03:14:31;;;;;;;7.97;2.13;;;;;;;;;;5028738;28;20072;-41
2023/10/19 03:16:59;;;;;;;7.10;2.60;;;;;;;;;;5025617;28;20080;-42
2023/10/19 03:19:27;;;;;;;8.02;1.70;;;;;;;;;;5027496;28;20033;-43
2023/10/19 03:22:00;;;;;;;4.53;1.90;;;;;;;;;;5011466;28;20026;-42
2023/10/19 03:24:36;;;;;;;7.28;2.22;;;;;;;;;;5010807;28;20048;-41
2023/10/19 03:27:15;;;;;;;5.60;2.13;;;;;;;;;;5011263;28;20040;-41
2023/10/19 03:29:46;;;;;;;5.78;1.85;;;;;;;;;;5011448;28;20049;-41
2023/10/19 03:32:14;;;;;;;13.32;2.40;;;;;;;;;;5008271;28;20038;-44
2023/10/19 03:34:46;;;;;;;10.82;1.92;;;;;;;;;;5001104;28;20121;-42
2023/10/19 03:37:14;;;;;;;3.90;1.85;;;;;;;;;;5002349;28;20544;-42
2023/10/19 03:39:45;;;;;;;9.02;1.98;;;;;;;;;;5001239;28;20109;-42
2023/10/19 03:42:16;;;;;;;7.22;1.95;;;;;;;;;;5005191;28;20440;-41
2023/10/19 03:47:14;;;;;;;6.72;1.50;;;;;;;;;;5005818;28;20049;-41
2023/10/19 03:49:41;;;;;;;5.05;1.90;;;;;;;;;;5004733;28;20046;-41
2023/10/19 03:54:42;;;;;;;6.70;2.00;;;;;;;;;;4995364;28;20035;-42
2023/10/19 03:57:13;;;;;;;6.07;2.20;;;;;;;;;;4995465;28;20022;-41
2023/10/19 03:59:40;;;;;;;4.78;1.55;;;;;;;;;;4995514;28;20125;-42
2023/10/19 04:02:20;;;;;;;4.57;1.42;;;;;;;;;;4995385;28;20026;-41
2023/10/19 04:04:52;;;;;;;4.03;1.73;;;;;;;;;;4995207;28;20038;-41
2023/10/19 04:07:26;;;;;;;4.87;1.60;;;;;;;;;;4995203;28;20038;-41
2023/10/19 04:12:31;;;;;;;4.38;1.58;;;;;;;;;;4995139;28;20461;-41
2023/10/19 04:17:46;;;;;;;7.28;1.55;;;;;;;;;;4995039;28;20409;-42
2023/10/19 04:22:44;;;;;;;8.95;1.98;;;;;;;;;;4995277;28;20117;-42
2023/10/19 04:25:15;;;;;;;5.18;1.70;;;;;;;;;;4994916;28;20026;-41
2023/10/19 04:27:43;;;;;;;5.43;1.60;;;;;;;;;;4995171;28;20065;-41
2023/10/19 04:30:17;;;;;;;3.90;1.55;;;;;;;;;;4994830;28;20042;-41
2023/10/19 04:32:45;;;;;;;5.45;1.90;;;;;;;;;;4994771;28;20035;-41
2023/10/19 04:35:21;;;;;;;2.50;1.27;;;;;;;;;;4994754;28;20034;-42
2023/10/19 04:37:50;;;;;;;4.75;2.08;;;;;;;;;;4994600;28;20489;-41
2023/10/19 04:40:17;;;;;;;5.93;1.33;;;;;;;;;;4994686;28;20113;-41
2023/10/19 04:42:44;;;;;;;4.20;1.40;;;;;;;;;;4994646;28;20109;-42
2023/10/19 04:45:12;;;;;;;6.40;1.60;;;;;;;;;;4994281;28;20125;-41
2023/10/19 04:47:39;;;;;;;4.13;1.30;;;;;;;;;;4994593;28;20068;-44
2023/10/19 04:50:06;;;;;;;3.78;1.33;;;;;;;;;;4994473;28;20058;-41
2023/10/19 04:52:34;;;;;;;4.38;1.70;;;;;;;;;;4994480;28;20030;-41
2023/10/19 04:55:01;;;;;;;3.25;1.45;;;;;;;;;;4994339;28;20027;-42
2023/10/19 04:57:28;;;;;;;3.00;1.50;;;;;;;;;;4994341;28;20133;-41
2023/10/19 04:59:55;;;;;;;4.85;1.30;;;;;;;;;;4994286;28;20099;-42
2023/10/19 05:02:22;;;;;;;4.78;1.52;;;;;;;;;;4994300;28;20149;-41
2023/10/19 05:04:49;;;;;;;2.90;1.20;;;;;;;;;;4994143;28;20088;-41
2023/10/19 05:07:17;;;;;;;3.92;1.92;;;;;;;;;;4994236;28;20105;-41
2023/10/19 05:09:47;;;;;;;4.25;1.30;;;;;;;;;;4994065;28;20026;-41
2023/10/19 05:12:17;;;;;;;3.75;1.40;;;;;;;;;;4992777;28;20117;-41
2023/10/19 05:14:45;;;;;;;3.73;1.40;;;;;;;;;;4993861;28;20408;-42
2023/10/19 05:17:13;;;;;;;2.60;1.25;;;;;;;;;;4993970;28;20190;-42
2023/10/19 05:19:40;;;;;;;2.72;1.30;;;;;;;;;;4993971;28;20065;-41
2023/10/19 05:22:09;;;;;;;4.38;1.10;;;;;;;;;;4993970;28;20026;-41
2023/10/19 05:24:37;;;;;;;1.80;1.00;;;;;;;;;;4993657;28;20038;-41
2023/10/19 05:27:04;;;;;;;7.00;1.30;;;;;;;;;;4993713;28;20074;-43
2023/10/19 05:29:35;;;;;;;1.67;1.10;;;;;;;;;;4993673;28;20441;-42
2023/10/19 05:32:03;;;;;;;2.63;1.20;;;;;;;;;;4993551;28;20038;-41
2023/10/19 05:34:32;;;;;;;4.00;1.30;;;;;;;;;;4993448;28;20049;-42
2023/10/19 05:37:02;;;;;;;2.63;0.98;;;;;;;;;;4993513;28;20544;-41
2023/10/19 05:39:33;;;;;;;2.83;1.10;;;;;;;;;;4993513;28;20065;-41
2023/10/19 05:42:00;;;;;;;2.23;1.00;;;;;;;;;;4992134;28;20792;-42
2023/10/19 05:44:28;;;;;;;2.08;1.00;;;;;;;;;;4993035;28;20412;-42
2023/10/19 05:46:55;;;;;;;2.08;0.90;;;;;;;;;;4993460;28;20030;-41
2023/10/19 05:49:23;;;;;;;1.73;0.98;;;;;;;;;;4993344;28;20093;-45
2023/10/19 05:51:51;;;;;;;3.60;1.10;;;;;;;;;;4993215;28;20547;-44
2023/10/19 05:54:18;;;;;;;1.83;0.90;;;;;;;;;;4993182;28;20041;-41
2023/10/19 05:56:45;;;;;;;1.90;0.80;;;;;;;;;;4993203;28;20064;-41
2023/10/19 05:59:13;;;;;;;3.33;1.35;;;;;;;;;;4993133;28;20034;-41
2023/10/19 06:01:46;;;;;;;1.98;1.17;;;;;;;;;;4991899;28;20110;-42
2023/10/19 06:04:13;;;;;;;1.88;0.90;;;;;;;;;;4992980;28;20034;-41
2023/10/19 06:06:40;;;;;;;4.47;1.30;;;;;;;;;;4992675;28;20080;-41
2023/10/19 06:09:11;;;;;;;4.10;1.20;;;;;;;;;;4993040;28;20037;-42
2023/10/19 06:11:42;;;;;;;3.22;0.98;;;;;;;;;;4992893;28;20038;-41
2023/10/19 06:14:09;;;;;;;3.50;1.20;;;;;;;;;;4992822;28;20469;-41
2023/10/19 06:16:36;;;;;;;1.65;0.85;;;;;;;;;;4992851;28;20034;-41
2023/10/19 06:19:05;;;;;;;2.40;1.13;;;;;;;;;;4992900;28;20034;-42
2023/10/19 06:21:33;;;;;;;2.00;1.20;;;;;;;;;;4992827;28;20083;-42
2023/10/19 06:24:00;;;;;;;4.47;1.38;;;;;;;;;;4992721;28;20026;-41
2023/10/19 06:26:27;;;;;;;1.83;0.90;;;;;;;;;;4992689;28;20034;-42
2023/10/19 06:29:01;;;;;;;3.22;1.20;;;;;;;;;;4992647;28;20038;-41
2023/10/19 06:31:28;;;;;;;1.95;1.00;;;;;;;;;;4992512;28;20038;-42
2023/10/19 06:33:57;;;;;;;3.20;1.42;;;;;;;;;;4992547;28;20033;-41
2023/10/19 06:36:24;;;;;;;3.13;1.10;;;;;;;;;;4992439;28;20041;-41
2023/10/19 06:38:51;;;;;;;2.97;1.10;;;;;;;;;;4992557;28;20022;-41
2023/10/19 06:41:18;;;;;;;1.13;0.82;;;;;;;;;;4992520;28;20076;-41
2023/10/19 06:43:46;;;;;;;1.60;0.90;;;;;;;;;;4992271;28;20040;-41
2023/10/19 06:46:14;;;;;;;1.60;0.80;;;;;;;;;;4992375;28;20038;-42
2023/10/19 06:48:42;;;;;;;1.50;0.90;;;;;;;;;;4992341;28;20073;-41
2023/10/19 06:51:09;;;;;;;1.35;0.95;;;;;;;;;;4992562;28;20424;-41
2023/10/19 06:53:36;;;;;;;1.67;0.90;;;;;;;;;;4992249;28;20042;-41
2023/10/19 06:56:04;;;;;;;2.10;0.75;;;;;;;;;;4992459;28;20030;-41
2023/10/19 06:58:31;;;;;;;2.40;1.00;;;;;;;;;;4992639;28;20050;-41
2023/10/19 07:01:05;;;;;;;1.98;0.80;;;;;;;;;;4991042;28;20046;-41
2023/10/19 07:03:32;;;;;;;1.70;0.80;;;;;;;;;;4992039;28;20482;-42
2023/10/19 07:05:59;;;;;;;3.72;1.27;;;;;;;;;;4992304;28;20030;-41
2023/10/19 07:08:30;;;;;;;2.08;0.90;;;;;;;;;;4992201;28;20133;-41
2023/10/19 07:10:57;;;;;;;1.65;0.70;;;;;;;;;;4990833;28;20389;-41
2023/10/19 07:13:24;;;;;;;3.15;0.80;;;;;;;;;;4992066;28;20030;-42
2023/10/19 07:15:51;;;;;;;1.10;0.65;;;;;;;;;;4992132;28;20023;-41
2023/10/19 07:18:18;;;;;;;2.65;1.10;;;;;;;;;;4994142;28;20091;-43
2023/10/19 07:20:48;;;;;;;7.32;1.48;;;;;;;;;;4996076;28;20030;-41
2023/10/19 07:23:18;;;;;;;1.35;0.80;;;;;;;;;;5003775;28;20476;-41
2023/10/19 07:25:47;;;;;;;3.22;1.10;;;;;;;;;;5035367;28;20105;-41
2023/10/19 07:28:15;;;;;;;1.25;0.85;;;;;;;;;;5035296;28;20024;-41
2023/10/19 07:30:43;;;;;;;2.03;0.98;;;;;;;;;;5035295;28;20034;-41
2023/10/19 07:33:17;;;;;;;1.98;0.80;;;;;;;;;;5035208;28;20480;-41
2023/10/19 07:35:46;;;;;;;1.58;0.80;;;;;;;;;;5035126;28;20069;-46
2023/10/19 07:38:16;;;;;;;2.00;0.90;;;;;;;;;;5035378;28;20033;-41
2023/10/19 07:40:44;;;;;;;2.53;0.80;;;;;;;;;;5035097;28;20795;-42
2023/10/19 07:43:11;;;;;;;3.40;0.85;;;;;;;;;;5034427;28;20373;-41
2023/10/19 07:45:38;;;;;;;1.80;0.90;;;;;;;;;;5033857;28;20037;-41
2023/10/19 07:48:11;;;;;;;1.38;0.80;;;;;;;;;;5033781;28;20450;-41
2023/10/19 07:50:43;;;;;;;1.15;0.65;;;;;;;;;;5033726;28;20116;-41
2023/10/19 07:53:10;;;;;;;1.10;0.63;;;;;;;;;;5033679;28;20034;-42
2023/10/19 07:55:38;;;;;;;0.98;0.70;;;;;;;;;;5033701;28;20475;-41
2023/10/19 07:58:08;;;;;;;2.13;1.00;;;;;;;;;;5033536;28;20061;-42
2023/10/19 08:00:36;;;;;;;0.98;0.50;;;;;;;;;;5033590;28;20095;-41
2023/10/19 08:03:07;;;;;;;2.50;0.88;;;;;;;;;;5033440;28;20037;-41
2023/10/19 08:05:34;;;;;;;0.88;0.65;;;;;;;;;;5033448;28;20484;-41
2023/10/19 08:08:03;;;;;;;2.67;0.80;;;;;;;;;;5033559;28;20536;-43
2023/10/19 08:10:30;;;;;;;1.55;0.80;;;;;;;;;;5033592;28;20611;-41
2023/10/19 08:12:58;;;;;;;1.85;0.80;;;;;;;;;;5033402;28;20026;-42
2023/10/19 08:15:26;;;;;;;1.48;0.82;;;;;;;;;;5033211;28;20489;-42
2023/10/19 08:17:56;;;;;;;1.75;0.85;;;;;;;;;;5033211;28;20037;-41
2023/10/19 08:20:23;;;;;;;0.90;0.60;;;;;;;;;;5033232;28;20163;-41
2023/10/19 08:22:51;;;;;;;1.02;0.60;;;;;;;;;;5033248;28;20400;-41
2023/10/19 08:25:18;;;;;;;1.63;0.70;;;;;;;;;;5033096;28;20041;-42
2023/10/19 08:27:48;;;;;;;1.50;0.73;;;;;;;;;;5033205;28;20038;-41
2023/10/19 08:30:17;;;;;;;1.55;0.75;;;;;;;;;;5032699;28;20044;-41
2023/10/19 08:32:48;;;;;;;0.93;0.68;;;;;;;;;;5033018;28;20514;-41
2023/10/19 08:35:18;;;;;;;1.15;0.70;;;;;;;;;;5032956;28;20060;-41
2023/10/19 08:37:46;;;;;;;1.38;0.93;;;;;;;;;;5033260;28;20033;-42
2023/10/19 08:40:17;;;;;;;2.20;0.80;;;;;;;;;;5032899;28;20041;-43
2023/10/19 08:42:48;;;;;;;1.77;0.70;;;;;;;;;;5032946;28;20029;-40
2023/10/19 08:45:16;;;;;;;1.55;0.70;;;;;;;;;;4954514;28;2274414;-44
2023/10/19 08:48:00;;;;;;;2.13;0.82;;;;;;;;;;5033978;28;20034;-40
2023/10/19 08:50:28;;;;;;;2.15;0.60;;;;;;;;;;5033668;28;20042;-43
2023/10/19 08:52:56;;;;;;;4.80;0.90;;;;;;;;;;5033824;28;20018;-41
2023/10/19 08:55:24;;;;;;;0.88;0.68;;;;;;;;;;5033875;28;20201;-41
2023/10/19 08:57:51;;;;;;;1.65;0.70;;;;;;;;;;5032519;28;20029;-43
2023/10/19 09:00:19;;;;;;;0.95;0.65;;;;;;;;;;5033661;28;20037;-41
2023/10/19 09:02:47;;;;;;;2.28;0.68;;;;;;;;;;5032332;28;20060;-40
2023/10/19 09:05:22;;;;;;;0.95;0.73;;;;;;;;;;5033556;28;20029;-41
2023/10/19 09:07:55;;;;;;;1.08;0.52;;;;;;;;;;5033567;28;20472;-41
2023/10/19 09:10:25;;;;;;;1.90;0.85;;;;;;;;;;5033474;28;20041;-42
2023/10/19 09:13:03;;;;;;;0.98;0.63;;;;;;;;;;5033481;28;20103;-41
2023/10/19 09:15:32;;;;;;;1.58;0.55;;;;;;;;;;5029354;28;20030;-41
2023/10/19 09:18:19;;;;;;;1.27;0.60;;;;;;;;;;4994029;28;20039;-42
2023/10/19 09:20:53;;;;;;;2.05;0.60;;;;;;;;;;4993849;28;20038;-42
2023/10/19 09:23:21;;;;;;;5.50;0.80;;;;;;;;;;5005931;28;20027;-41
2023/10/19 09:25:54;;;;;;;5.95;0.80;;;;;;;;;;5006059;28;20026;-42
2023/10/19 09:28:24;;;;;;;5.45;0.90;;;;;;;;;;5004121;28;20109;-40
2023/10/19 09:30:51;;;;;;;3.25;0.68;;;;;;;;;;5002241;28;20436;-41
2023/10/19 09:33:21;;;;;;;4.30;0.70;;;;;;;;;;5001513;28;20040;-40
2023/10/19 09:35:50;;;;;;;4.72;0.98;;;;;;;;;;5003264;28;20029;-41
2023/10/19 09:38:21;;;;;;;4.38;0.88;;;;;;;;;;5001411;28;20567;-41
2023/10/19 09:40:49;;;;;;;3.28;0.80;;;;;;;;;;5000394;28;20037;-41
2023/10/19 09:43:17;;;;;;;3.85;0.68;;;;;;;;;;4993193;28;20026;-42
2023/10/19 09:45:49;;;;;;;5.22;0.98;;;;;;;;;;4998824;28;20400;-43
2023/10/19 09:48:17;;;;;;;8.65;0.85;;;;;;;;;;5013126;28;20431;-41
2023/10/19 09:50:48;;;;;;;6.75;1.10;;;;;;;;;;5012940;28;20030;-41
2023/10/19 09:53:15;;;;;;;3.80;0.82;;;;;;;;;;5012801;28;20543;-42
2023/10/19 09:55:43;;;;;;;6.00;0.95;;;;;;;;;;5012903;28;20121;-42
2023/10/19 09:58:14;;;;;;;3.75;0.70;;;;;;;;;;5012901;28;20460;-40
2023/10/19 10:00:45;;;;;;;3.45;0.90;;;;;;;;;;5012903;28;20029;-42
2023/10/19 10:03:30;;;;;;;4.38;0.90;;;;;;;;;;5005992;28;20034;-42
2023/10/19 10:05:57;;;;;;;2.75;1.10;;;;;;;;;;5003799;28;20112;-39
2023/10/19 10:08:26;;;;;;;2.65;0.90;;;;;;;;;;5002623;28;20145;-39
2023/10/19 10:10:53;;;;;;;1.67;0.70;;;;;;;;;;5007881;28;20558;-40
2023/10/19 10:13:31;;;;;;;5.72;0.73;;;;;;;;;;4992067;28;20448;-42
2023/10/19 10:16:03;;;;;;;5.72;0.80;;;;;;;;;;4992462;28;20553;-41
2023/10/19 10:18:35;;;;;;;2.85;0.80;;;;;;;;;;4992733;28;20520;-39
2023/10/19 10:21:18;;;;;;;17.05;1.90;;;;;;;;;;4990837;28;20034;-42
2023/10/19 10:23:50;;;;;;;10.60;1.50;;;;;;;;;;4994855;28;20443;-41
2023/10/19 10:26:18;;;;;;;10.80;1.83;;;;;;;;;;4992040;28;20038;-41
2023/10/19 10:28:49;;;;;;;7.60;1.40;;;;;;;;;;4992638;28;20065;-40
2023/10/19 10:31:23;;;;;;;8.20;1.30;;;;;;;;;;5007844;28;20069;-39
2023/10/19 10:33:51;;;;;;;5.38;1.25;;;;;;;;;;5010617;28;20108;-39
2023/10/19 10:36:19;;;;;;;7.68;1.30;;;;;;;;;;5011220;28;20038;-39
2023/10/19 10:38:46;;;;;;;9.63;1.30;;;;;;;;;;5011993;28;20116;-39
2023/10/19 10:41:20;;;;;;;4.45;1.15;;;;;;;;;;5002161;28;20488;-39
2023/10/19 10:43:54;;;;;;;5.22;0.90;;;;;;;;;;5004914;28;20052;-38
2023/10/19 10:46:22;;;;;;;5.55;0.90;;;;;;;;;;4993597;28;20027;-39
2023/10/19 10:48:49;;;;;;;3.90;0.88;;;;;;;;;;4992025;28;20042;-40
2023/10/19 10:51:23;;;;;;;3.30;1.00;;;;;;;;;;4991619;28;20437;-39
2023/10/19 10:53:51;;;;;;;5.50;1.10;;;;;;;;;;4997940;28;20046;-43
2023/10/19 10:56:18;;;;;;;5.40;1.17;;;;;;;;;;5000738;28;20034;-40
2023/10/19 10:58:46;;;;;;;3.45;1.08;;;;;;;;;;5001087;28;20037;-40
2023/10/19 11:01:14;;;;;;;2.63;0.95;;;;;;;;;;5002345;28;20108;-39
2023/10/19 11:03:44;;;;;;;5.07;1.40;;;;;;;;;;5001312;28;20089;-39
2023/10/19 11:06:11;;;;;;;4.90;1.00;;;;;;;;;;5000443;28;20111;-40
2023/10/19 11:08:39;;;;;;;5.38;1.00;;;;;;;;;;5003374;28;20032;-39
2023/10/19 11:11:12;;;;;;;3.20;0.90;;;;;;;;;;5011710;28;20077;-39
2023/10/19 11:13:40;;;;;;;2.38;0.75;;;;;;;;;;5011722;28;20133;-41
2023/10/19 11:16:09;;;;;;;3.13;0.70;;;;;;;;;;5011784;28;20030;-39
2023/10/19 11:18:39;;;;;;;3.65;0.70;;;;;;;;;;5011605;28;20087;-39
2023/10/19 11:21:10;;;;;;;3.55;0.70;;;;;;;;;;5011740;28;20037;-39
2023/10/19 11:23:43;;;;;;;2.03;0.63;;;;;;;;;;5011743;28;20046;-40
2023/10/19 11:26:11;;;;;;;4.20;0.60;;;;;;;;;;5011701;28;20407;-39
2023/10/19 11:28:51;;;;;;;2.60;0.98;;;;;;;;;;5011726;28;20026;-39
2023/10/19 11:31:22;;;;;;;1.98;0.60;;;;;;;;;;5008412;28;20037;-39
2023/10/19 11:33:49;;;;;;;1.63;0.63;;;;;;;;;;5011625;28;20488;-39
2023/10/19 11:36:17;;;;;;;2.47;0.70;;;;;;;;;;5011663;28;20022;-43
2023/10/19 11:38:45;;;;;;;2.00;0.75;;;;;;;;;;5011684;28;20022;-40
2023/10/19 11:41:13;;;;;;;3.30;0.75;;;;;;;;;;5010218;28;20412;-39
2023/10/19 11:43:44;;;;;;;1.33;0.60;;;;;;;;;;5011354;28;20100;-40
2023/10/19 11:46:25;;;;;;;2.53;0.80;;;;;;;;;;5011541;28;20033;-39
2023/10/19 11:48:52;;;;;;;0.95;0.60;;;;;;;;;;5011539;28;20554;-39
2023/10/19 11:51:19;;;;;;;1.63;0.80;;;;;;;;;;5011428;28;20030;-40
2023/10/19 11:53:46;;;;;;;1.67;0.80;;;;;;;;;;5011339;28;20777;-39
2023/10/19 11:56:16;;;;;;;2.20;0.80;;;;;;;;;;5010134;28;20408;-39
2023/10/19 11:58:46;;;;;;;2.15;0.70;;;;;;;;;;5011386;28;20034;-39
2023/10/19 12:01:13;;;;;;;2.15;0.90;;;;;;;;;;5011334;28;20116;-39
2023/10/19 12:03:41;;;;;;;2.05;0.57;;;;;;;;;;5012160;28;20018;-40
2023/10/19 12:06:09;;;;;;;2.60;0.70;;;;;;;;;;5015042;28;20022;-40
2023/10/19 12:08:37;;;;;;;2.95;0.93;;;;;;;;;;5008729;28;20073;-40
2023/10/19 12:11:19;;;;;;;2.05;0.90;;;;;;;;;;4997783;28;20108;-42
2023/10/19 12:13:46;;;;;;;;;;;;;;;;;;4995581;28;20106;-39
2023/10/19 12:16:15;;;;;;;1.98;0.90;;;;;;;;;;4993874;28;20343;-39
2023/10/19 12:18:43;;;;;;;2.47;0.85;;;;;;;;;;4995099;28;20168;-39
2023/10/19 12:21:17;;;;;;;2.40;0.88;;;;;;;;;;4995111;28;20076;-39
2023/10/19 12:23:50;;;;;;;2.10;0.70;;;;;;;;;;4994845;28;20035;-39
2023/10/19 12:26:17;;;;;;;2.70;0.90;;;;;;;;;;4999788;28;20038;-38
2023/10/19 12:28:46;;;;;;;3.22;0.85;;;;;;;;;;5014518;28;20026;-38
2023/10/19 12:31:13;;;;;;;3.72;0.80;;;;;;;;;;5008015;28;20548;-37
2023/10/19 12:33:41;;;;;;;2.35;0.77;;;;;;;;;;5004453;28;20029;-37
2023/10/19 12:38:52;;;;;;;3.10;0.70;;;;;;;;;;5005029;28;20054;-36
2023/10/19 12:41:22;;;;;;;4.95;1.00;;;;;;;;;;4994640;28;20033;-36
2023/10/19 12:43:52;;;;;;;8.38;1.02;;;;;;;;;;4994154;28;20065;-36
2023/10/19 12:46:19;;;;;;;3.05;0.95;;;;;;;;;;4999549;28;20038;-37
2023/10/19 12:48:49;;;;;;;3.50;0.90;;;;;;;;;;4994621;28;20396;-37
2023/10/19 12:51:22;;;;;;;3.97;0.85;;;;;;;;;;5006797;28;20515;-35
2023/10/19 12:53:51;;;;;;;4.22;1.05;;;;;;;;;;5013040;28;20033;-36
2023/10/19 12:56:23;;;;;;;2.67;0.88;;;;;;;;;;5014057;28;20095;-36
2023/10/19 12:58:50;;;;;;;3.22;0.90;;;;;;;;;;5013972;28;20472;-36
2023/10/19 13:01:18;;;;;;;4.15;0.98;;;;;;;;;;5014006;28;20033;-35
2023/10/19 13:03:50;;;;;;;5.38;1.30;;;;;;;;;;5013830;28;20041;-37
2023/10/19 13:06:19;;;;;;;4.93;0.88;;;;;;;;;;5013838;28;20036;-36
2023/10/19 13:08:46;;;;;;;7.93;1.25;;;;;;;;;;5013776;28;20034;-35
2023/10/19 13:11:14;;;;;;;4.63;1.08;;;;;;;;;;5013781;28;20038;-36
2023/10/19 13:13:41;;;;;;;4.95;1.10;;;;;;;;;;5013585;28;20037;-37
2023/10/19 13:16:13;;;;;;;2.78;0.80;;;;;;;;;;5012609;28;20037;-35
2023/10/19 13:18:40;;;;;;;4.43;1.08;;;;;;;;;;5013683;28;20757;-36
2023/10/19 13:21:11;;;;;;;3.00;0.70;;;;;;;;;;5013668;28;20030;-37
2023/10/19 13:23:38;;;;;;;2.83;0.82;;;;;;;;;;5013470;28;20041;-36
2023/10/19 13:26:17;;;;;;;3.50;0.95;;;;;;;;;;5013454;28;20080;-36
2023/10/19 13:28:44;;;;;;;4.82;1.27;;;;;;;;;;5013653;28;20496;-36
2023/10/19 13:31:13;;;;;;;3.08;0.80;;;;;;;;;;5013679;28;20052;-36
2023/10/19 13:33:45;;;;;;;4.47;1.15;;;;;;;;;;5013326;28;20060;-36
2023/10/19 13:36:12;;;;;;;5.65;0.75;;;;;;;;;;5013167;28;20030;-37
2023/10/19 13:38:40;;;;;;;3.47;0.88;;;;;;;;;;5013228;28;20026;-36
2023/10/19 13:41:10;;;;;;;5.70;1.10;;;;;;;;;;5013182;28;20140;-36
2023/10/19 13:43:37;;;;;;;2.97;1.10;;;;;;;;;;5012936;28;20141;-36
2023/10/19 13:46:04;;;;;;;3.78;0.98;;;;;;;;;;5013179;28;20061;-36
2023/10/19 13:48:37;;;;;;;3.40;1.02;;;;;;;;;;5013097;28;20094;-36
2023/10/19 13:51:13;;;;;;;2.03;0.95;;;;;;;;;;5011682;28;20050;-36
2023/10/19 13:53:40;;;;;;;2.58;0.80;;;;;;;;;;5012896;28;20061;-36
2023/10/19 13:56:11;;;;;;;2.65;1.25;;;;;;;;;;5012961;28;20121;-35
2023/10/19 13:58:38;;;;;;;9.10;1.23;;;;;;;;;;5012844;28;20064;-36
2023/10/19 14:01:09;;;;;;;4.00;0.93;;;;;;;;;;5013129;28;20410;-35
2023/10/19 14:03:37;;;;;;;2.22;0.90;;;;;;;;;;5012809;28;20065;-37
2023/10/19 14:06:05;;;;;;;2.40;0.82;;;;;;;;;;5012816;28;20038;-36
2023/10/19 14:08:32;;;;;;;3.70;0.90;;;;;;;;;;5012795;28;20421;-35
2023/10/19 14:11:03;;;;;;;3.30;0.70;;;;;;;;;;5012555;28;20048;-36
2023/10/19 14:13:30;;;;;;;2.70;0.93;;;;;;;;;;5012675;28;20129;-36
2023/10/19 14:15:57;;;;;;;3.10;0.90;;;;;;;;;;5012698;28;20033;-35
2023/10/19 14:18:24;;;;;;;2.65;1.00;;;;;;;;;;5012575;28;20484;-36
2023/10/19 14:20:51;;;;;;;4.35;1.00;;;;;;;;;;5012506;28;20026;-36
2023/10/19 14:23:18;;;;;;;2.88;1.10;;;;;;;;;;5012250;28;20479;-36
2023/10/19 14:25:45;;;;;;;2.35;1.13;;;;;;;;;;5012460;28;20022;-36
2023/10/19 14:28:12;;;;;;;4.13;1.08;;;;;;;;;;5012103;28;20500;-36
2023/10/19 14:30:39;;;;;;;4.15;0.88;;;;;;;;;;5012350;28;20034;-37
2023/10/19 14:33:10;;;;;;;2.70;0.95;;;;;;;;;;5010924;28;20026;-36
2023/10/19 14:35:41;;;;;;;2.80;1.00;;;;;;;;;;5012261;28;20029;-35
2023/10/19 14:38:09;;;;;;;3.83;1.00;;;;;;;;;;5012295;28;20085;-36
2023/10/19 14:40:36;;;;;;;2.25;0.75;;;;;;;;;;5012510;28;20507;-36
2023/10/19 14:43:03;;;;;;;2.35;1.10;;;;;;;;;;5012135;28;20504;-37
2023/10/19 14:45:30;;;;;;;3.60;0.98;;;;;;;;;;5012096;28;20590;-37
2023/10/19 14:47:58;;;;;;;2.05;0.90;;;;;;;;;;5012077;28;20053;-37
2023/10/19 14:50:27;;;;;;;1.98;0.85;;;;;;;;;;5012068;28;20115;-37
2023/10/19 14:52:54;;;;;;;2.97;0.82;;;;;;;;;;5012016;28;20408;-37
2023/10/19 14:55:21;;;;;;;1.75;0.70;;;;;;;;;;5012290;28;20548;-37
2023/10/19 14:57:53;;;;;;;2.25;1.15;;;;;;;;;;5012072;28;20080;-37
2023/10/19 15:03:04;;;;;;;2.15;0.85;;;;;;;;;;5012190;28;20040;-36
2023/10/19 15:05:35;;;;;;;2.60;0.70;;;;;;;;;;5012012;28;20033;-37
2023/10/19 15:08:04;;;;;;;2.85;1.05;;;;;;;;;;5011917;28;20084;-37
2023/10/19 15:10:32;;;;;;;5.20;1.20;;;;;;;;;;5011718;28;20050;-37
2023/10/19 15:12:59;;;;;;;2.13;1.10;;;;;;;;;;5010548;28;20026;-37
2023/10/19 15:15:30;;;;;;;3.25;1.20;;;;;;;;;;5011910;28;20034;-37
2023/10/19 15:17:57;;;;;;;4.65;1.33;;;;;;;;;;5011702;28;20507;-37
2023/10/19 15:20:29;;;;;;;5.93;1.42;;;;;;;;;;5011893;28;20129;-38
2023/10/19 15:22:56;;;;;;;4.43;1.05;;;;;;;;;;5007560;28;20038;-35
2023/10/19 15:25:27;;;;;;;17.52;1.60;;;;;;;;;;5008946;28;20029;-35
2023/10/19 15:27:54;;;;;;;10.27;1.73;;;;;;;;;;5024873;28;20030;-44
2023/10/19 15:30:22;;;;;;;6.25;2.03;;;;;;;;;;5018349;28;20042;-43